CheckWX is a tool to help pilots better visualize weather data.  It is not intended as a substitute for an official pre-flight weather briefing.

03:38:10 UTC

OMRK METAR
Ras Al Khaimah International Airport
Ras Al Khaimah, United Arab Emirates
Current

38 mins ago

OMRK 070300Z 18004KT CAVOK 17/14 Q1014 A2994
Observed
Apr-7 @ 03:00 UTC
Wind
  • 180° at 4 KTS
Visibility
10,000+ meters
Flight Rules
VFR
Cloud Levels
  • Clear skies
Temperature
17°C / 63°F
Dewpoint
14°C / 57°F
Humidity
83%
Altimeter
29.94" Hg
Pressure
1013.92 hPa
Previous

2 hours ago

OMRK 070200Z 20005KT CAVOK 16/14 Q1013 A2992
Observed
Apr-7 @ 02:00 UTC
Wind
  • 200° at 5 KTS
Visibility
10,000+ meters
Flight Rules
VFR
Cloud Levels
  • Clear skies
Temperature
16°C / 61°F
Dewpoint
14°C / 57°F
Humidity
88%
Altimeter
29.91" Hg
Pressure
1012.92 hPa
Previous

3 hours ago

OMRK 070100Z 16004KT CAVOK 18/15 Q1012 A2990
Observed
Apr-7 @ 01:00 UTC
Wind
  • 160° at 4 KTS
Visibility
10,000+ meters
Flight Rules
VFR
Cloud Levels
  • Clear skies
Temperature
18°C / 64°F
Dewpoint
15°C / 59°F
Humidity
83%
Altimeter
29.88" Hg
Pressure
1011.92 hPa